sensor_id;sensor_type;location;lat;lon;timestamp;temperature;humidity
24860;DHT22;12936;52.006;4.350;2023-05-07T00:01:30;17.60;99.90
24860;DHT22;12936;52.006;4.350;2023-05-07T00:03:58;17.50;99.90
24860;DHT22;12936;52.006;4.350;2023-05-07T00:06:29;17.50;99.90
24860;DHT22;12936;52.006;4.350;2023-05-07T00:08:59;17.50;99.90
24860;DHT22;12936;52.006;4.350;2023-05-07T00:11:27;17.50;99.90
24860;DHT22;12936;52.006;4.350;2023-05-07T00:13:56;17.50;99.90
24860;DHT22;12936;52.006;4.350;2023-05-07T00:16:25;17.50;99.90
24860;DHT22;12936;52.006;4.350;2023-05-07T00:18:53;17.50;99.90
24860;DHT22;12936;52.006;4.350;2023-05-07T00:21:21;17.50;99.90
24860;DHT22;12936;52.006;4.350;2023-05-07T00:23:49;17.50;99.90
24860;DHT22;12936;52.006;4.350;2023-05-07T00:26:19;17.40;99.90
24860;DHT22;12936;52.006;4.350;2023-05-07T00:28:47;17.40;99.90
24860;DHT22;12936;52.006;4.350;2023-05-07T00:31:15;17.50;99.90
24860;DHT22;12936;52.006;4.350;2023-05-07T00:33:43;17.50;99.90
24860;DHT22;12936;52.006;4.350;2023-05-07T00:36:11;17.40;99.90
24860;DHT22;12936;52.006;4.350;2023-05-07T00:38:40;17.40;99.90
24860;DHT22;12936;52.006;4.350;2023-05-07T00:41:09;17.40;99.90
24860;DHT22;12936;52.006;4.350;2023-05-07T00:43:39;17.40;99.90
24860;DHT22;12936;52.006;4.350;2023-05-07T00:46:07;17.40;99.90
24860;DHT22;12936;52.006;4.350;2023-05-07T00:48:38;17.40;99.90
24860;DHT22;12936;52.006;4.350;2023-05-07T00:51:10;17.40;99.90
24860;DHT22;12936;52.006;4.350;2023-05-07T00:53:39;17.40;99.90
24860;DHT22;12936;52.006;4.350;2023-05-07T00:56:07;17.40;99.90
24860;DHT22;12936;52.006;4.350;2023-05-07T00:58:35;17.40;99.90
24860;DHT22;12936;52.006;4.350;2023-05-07T01:01:05;17.30;99.90
24860;DHT22;12936;52.006;4.350;2023-05-07T01:03:33;17.30;99.90
24860;DHT22;12936;52.006;4.350;2023-05-07T01:06:03;17.30;99.90
24860;DHT22;12936;52.006;4.350;2023-05-07T01:08:32;17.30;99.90
24860;DHT22;12936;52.006;4.350;2023-05-07T01:11:01;17.30;99.90
24860;DHT22;12936;52.006;4.350;2023-05-07T01:13:30;17.30;99.90
24860;DHT22;12936;52.006;4.350;2023-05-07T01:16:02;17.30;99.90
24860;DHT22;12936;52.006;4.350;2023-05-07T01:18:31;17.30;99.90
24860;DHT22;12936;52.006;4.350;2023-05-07T01:21:01;17.30;99.90
24860;DHT22;12936;52.006;4.350;2023-05-07T01:23:33;17.20;99.90
24860;DHT22;12936;52.006;4.350;2023-05-07T01:26:03;17.20;99.90
24860;DHT22;12936;52.006;4.350;2023-05-07T01:28:31;17.20;99.90
24860;DHT22;12936;52.006;4.350;2023-05-07T01:31:01;17.20;99.90
24860;DHT22;12936;52.006;4.350;2023-05-07T01:33:33;17.20;99.90
24860;DHT22;12936;52.006;4.350;2023-05-07T01:36:03;17.20;99.90
24860;DHT22;12936;52.006;4.350;2023-05-07T01:38:35;17.20;99.90
24860;DHT22;12936;52.006;4.350;2023-05-07T01:41:05;17.20;99.90
24860;DHT22;12936;52.006;4.350;2023-05-07T01:43:34;17.20;99.90
24860;DHT22;12936;52.006;4.350;2023-05-07T01:46:03;17.20;99.90
24860;DHT22;12936;52.006;4.350;2023-05-07T01:48:34;17.20;99.90
24860;DHT22;12936;52.006;4.350;2023-05-07T01:51:03;17.10;99.90
24860;DHT22;12936;52.006;4.350;2023-05-07T01:53:39;17.10;99.90
24860;DHT22;12936;52.006;4.350;2023-05-07T01:56:10;17.10;99.90
24860;DHT22;12936;52.006;4.350;2023-05-07T01:58:38;17.10;99.90
24860;DHT22;12936;52.006;4.350;2023-05-07T02:01:08;17.10;99.90
24860;DHT22;12936;52.006;4.350;2023-05-07T02:03:36;17.10;99.90
24860;DHT22;12936;52.006;4.350;2023-05-07T02:06:05;17.10;99.90
24860;DHT22;12936;52.006;4.350;2023-05-07T02:08:33;17.10;99.90
24860;DHT22;12936;52.006;4.350;2023-05-07T02:11:03;17.10;99.90
24860;DHT22;12936;52.006;4.350;2023-05-07T02:13:33;17.10;99.90
24860;DHT22;12936;52.006;4.350;2023-05-07T02:16:02;17.10;99.90
24860;DHT22;12936;52.006;4.350;2023-05-07T02:18:31;17.10;99.90
24860;DHT22;12936;52.006;4.350;2023-05-07T02:21:00;17.10;99.90
24860;DHT22;12936;52.006;4.350;2023-05-07T02:23:29;17.10;99.90
24860;DHT22;12936;52.006;4.350;2023-05-07T02:25:57;17.10;99.90
24860;DHT22;12936;52.006;4.350;2023-05-07T02:28:28;17.10;99.90
24860;DHT22;12936;52.006;4.350;2023-05-07T02:31:02;17.10;99.90
24860;DHT22;12936;52.006;4.350;2023-05-07T02:33:32;17.10;99.90
24860;DHT22;12936;52.006;4.350;2023-05-07T02:36:08;17.00;99.90
24860;DHT22;12936;52.006;4.350;2023-05-07T02:38:37;17.00;99.90
24860;DHT22;12936;52.006;4.350;2023-05-07T02:41:05;17.00;99.90
24860;DHT22;12936;52.006;4.350;2023-05-07T02:43:34;17.00;99.90
24860;DHT22;12936;52.006;4.350;2023-05-07T02:46:07;17.00;99.90
24860;DHT22;12936;52.006;4.350;2023-05-07T02:48:35;17.00;99.90
24860;DHT22;12936;52.006;4.350;2023-05-07T02:51:05;17.00;99.90
24860;DHT22;12936;52.006;4.350;2023-05-07T02:53:33;17.00;99.90
24860;DHT22;12936;52.006;4.350;2023-05-07T02:56:02;17.00;99.90
24860;DHT22;12936;52.006;4.350;2023-05-07T02:58:31;17.00;99.90
24860;DHT22;12936;52.006;4.350;2023-05-07T03:01:03;17.00;99.90
24860;DHT22;12936;52.006;4.350;2023-05-07T03:03:31;17.00;99.90
24860;DHT22;12936;52.006;4.350;2023-05-07T03:06:00;17.00;99.90
24860;DHT22;12936;52.006;4.350;2023-05-07T03:08:28;17.00;99.90
24860;DHT22;12936;52.006;4.350;2023-05-07T03:11:02;17.00;99.90
24860;DHT22;12936;52.006;4.350;2023-05-07T03:13:30;17.00;99.90
24860;DHT22;12936;52.006;4.350;2023-05-07T03:15:59;17.00;99.90
24860;DHT22;12936;52.006;4.350;2023-05-07T03:18:33;17.00;99.90
24860;DHT22;12936;52.006;4.350;2023-05-07T03:21:02;17.00;99.90
24860;DHT22;12936;52.006;4.350;2023-05-07T03:23:33;17.00;99.90
24860;DHT22;12936;52.006;4.350;2023-05-07T03:26:02;17.00;99.90
24860;DHT22;12936;52.006;4.350;2023-05-07T03:28:36;17.00;99.90
24860;DHT22;12936;52.006;4.350;2023-05-07T03:31:05;17.00;99.90
24860;DHT22;12936;52.006;4.350;2023-05-07T03:33:35;17.00;99.90
24860;DHT22;12936;52.006;4.350;2023-05-07T03:36:03;17.00;99.90
24860;DHT22;12936;52.006;4.350;2023-05-07T03:38:32;17.00;99.90
24860;DHT22;12936;52.006;4.350;2023-05-07T03:41:01;17.00;99.90
24860;DHT22;12936;52.006;4.350;2023-05-07T03:43:50;17.00;99.90
24860;DHT22;12936;52.006;4.350;2023-05-07T03:46:18;17.00;99.90
24860;DHT22;12936;52.006;4.350;2023-05-07T03:48:56;17.00;99.90
24860;DHT22;12936;52.006;4.350;2023-05-07T03:51:24;17.00;99.90
24860;DHT22;12936;52.006;4.350;2023-05-07T03:53:53;17.00;99.90
24860;DHT22;12936;52.006;4.350;2023-05-07T03:56:23;17.00;99.90
24860;DHT22;12936;52.006;4.350;2023-05-07T03:58:54;17.00;99.90
24860;DHT22;12936;52.006;4.350;2023-05-07T04:01:23;16.90;99.90
24860;DHT22;12936;52.006;4.350;2023-05-07T04:03:55;17.00;99.90
24860;DHT22;12936;52.006;4.350;2023-05-07T04:06:24;17.00;99.90
24860;DHT22;12936;52.006;4.350;2023-05-07T04:08:54;17.00;99.90
24860;DHT22;12936;52.006;4.350;2023-05-07T04:11:24;16.90;99.90
24860;DHT22;12936;52.006;4.350;2023-05-07T04:13:52;17.00;99.90
24860;DHT22;12936;52.006;4.350;2023-05-07T04:16:21;17.00;99.90
24860;DHT22;12936;52.006;4.350;2023-05-07T04:18:53;17.00;99.90
24860;DHT22;12936;52.006;4.350;2023-05-07T04:21:22;17.00;99.90
24860;DHT22;12936;52.006;4.350;2023-05-07T04:23:50;17.00;99.90
24860;DHT22;12936;52.006;4.350;2023-05-07T04:26:19;17.00;99.90
24860;DHT22;12936;52.006;4.350;2023-05-07T04:28:51;17.00;99.90
24860;DHT22;12936;52.006;4.350;2023-05-07T04:31:21;17.00;99.90
24860;DHT22;12936;52.006;4.350;2023-05-07T04:33:50;17.00;99.90
24860;DHT22;12936;52.006;4.350;2023-05-07T04:36:20;17.00;99.90
24860;DHT22;12936;52.006;4.350;2023-05-07T04:38:50;17.00;99.90
24860;DHT22;12936;52.006;4.350;2023-05-07T04:41:19;17.00;99.90
24860;DHT22;12936;52.006;4.350;2023-05-07T04:43:47;17.10;99.90
24860;DHT22;12936;52.006;4.350;2023-05-07T04:46:15;17.00;99.90
24860;DHT22;12936;52.006;4.350;2023-05-07T04:48:44;17.10;99.90
24860;DHT22;12936;52.006;4.350;2023-05-07T04:51:12;17.00;99.90
24860;DHT22;12936;52.006;4.350;2023-05-07T04:53:41;17.10;99.90
24860;DHT22;12936;52.006;4.350;2023-05-07T04:56:17;17.10;99.90
24860;DHT22;12936;52.006;4.350;2023-05-07T04:58:46;17.10;99.90
24860;DHT22;12936;52.006;4.350;2023-05-07T05:01:18;17.10;99.90
24860;DHT22;12936;52.006;4.350;2023-05-07T05:03:49;17.10;99.90
24860;DHT22;12936;52.006;4.350;2023-05-07T05:06:17;17.10;99.90
24860;DHT22;12936;52.006;4.350;2023-05-07T05:08:47;17.10;99.90
24860;DHT22;12936;52.006;4.350;2023-05-07T05:11:16;17.10;99.90
24860;DHT22;12936;52.006;4.350;2023-05-07T05:13:44;17.10;99.90
24860;DHT22;12936;52.006;4.350;2023-05-07T05:16:14;17.10;99.90
24860;DHT22;12936;52.006;4.350;2023-05-07T05:18:42;17.10;99.90
24860;DHT22;12936;52.006;4.350;2023-05-07T05:21:10;17.10;99.90
24860;DHT22;12936;52.006;4.350;2023-05-07T05:23:38;17.10;99.90
24860;DHT22;12936;52.006;4.350;2023-05-07T05:26:07;17.10;99.90
24860;DHT22;12936;52.006;4.350;2023-05-07T05:28:35;17.10;99.90
24860;DHT22;12936;52.006;4.350;2023-05-07T05:31:03;17.20;99.90
24860;DHT22;12936;52.006;4.350;2023-05-07T05:33:31;17.20;99.90
24860;DHT22;12936;52.006;4.350;2023-05-07T05:35:59;17.20;99.90
24860;DHT22;12936;52.006;4.350;2023-05-07T05:38:27;17.20;99.90
24860;DHT22;12936;52.006;4.350;2023-05-07T05:40:55;17.20;99.90
24860;DHT22;12936;52.006;4.350;2023-05-07T05:43:25;17.20;99.90
24860;DHT22;12936;52.006;4.350;2023-05-07T05:45:53;17.20;99.90
24860;DHT22;12936;52.006;4.350;2023-05-07T05:48:21;17.20;99.90
24860;DHT22;12936;52.006;4.350;2023-05-07T05:50:49;17.20;99.90
24860;DHT22;12936;52.006;4.350;2023-05-07T05:53:17;17.20;99.90
24860;DHT22;12936;52.006;4.350;2023-05-07T05:55:45;17.30;99.90
24860;DHT22;12936;52.006;4.350;2023-05-07T05:58:13;17.30;99.90
24860;DHT22;12936;52.006;4.350;2023-05-07T06:00:44;17.30;99.90
24860;DHT22;12936;52.006;4.350;2023-05-07T06:03:12;17.30;99.90
24860;DHT22;12936;52.006;4.350;2023-05-07T06:05:40;17.30;99.90
24860;DHT22;12936;52.006;4.350;2023-05-07T06:08:08;17.40;99.90
24860;DHT22;12936;52.006;4.350;2023-05-07T06:10:36;17.40;99.90
24860;DHT22;12936;52.006;4.350;2023-05-07T06:13:05;17.40;99.90
24860;DHT22;12936;52.006;4.350;2023-05-07T06:15:33;17.50;99.90
24860;DHT22;12936;52.006;4.350;2023-05-07T06:18:02;17.50;99.90
24860;DHT22;12936;52.006;4.350;2023-05-07T06:20:30;17.50;99.90
24860;DHT22;12936;52.006;4.350;2023-05-07T06:22:58;17.50;99.90
24860;DHT22;12936;52.006;4.350;2023-05-07T06:25:26;17.50;99.90
24860;DHT22;12936;52.006;4.350;2023-05-07T06:27:54;17.60;99.90
24860;DHT22;12936;52.006;4.350;2023-05-07T06:30:22;17.60;99.90
24860;DHT22;12936;52.006;4.350;2023-05-07T06:32:50;17.60;99.90
24860;DHT22;12936;52.006;4.350;2023-05-07T06:35:20;17.60;99.90
24860;DHT22;12936;52.006;4.350;2023-05-07T06:37:48;17.60;99.90
24860;DHT22;12936;52.006;4.350;2023-05-07T06:40:16;17.70;99.90
24860;DHT22;12936;52.006;4.350;2023-05-07T06:42:44;17.60;99.90
24860;DHT22;12936;52.006;4.350;2023-05-07T06:45:12;17.70;99.90
24860;DHT22;12936;52.006;4.350;2023-05-07T06:47:40;17.70;99.90
24860;DHT22;12936;52.006;4.350;2023-05-07T06:50:08;17.70;99.90
24860;DHT22;12936;52.006;4.350;2023-05-07T06:52:38;17.70;99.90
24860;DHT22;12936;52.006;4.350;2023-05-07T06:55:07;17.70;99.90
24860;DHT22;12936;52.006;4.350;2023-05-07T06:57:35;17.70;99.90
24860;DHT22;12936;52.006;4.350;2023-05-07T07:00:04;17.70;99.90
24860;DHT22;12936;52.006;4.350;2023-05-07T07:02:33;17.80;99.90
24860;DHT22;12936;52.006;4.350;2023-05-07T07:05:01;17.80;99.90
24860;DHT22;12936;52.006;4.350;2023-05-07T07:07:29;17.90;99.90
24860;DHT22;12936;52.006;4.350;2023-05-07T07:09:59;17.90;99.90
24860;DHT22;12936;52.006;4.350;2023-05-07T07:12:27;17.90;99.90
24860;DHT22;12936;52.006;4.350;2023-05-07T07:14:56;17.90;99.90
24860;DHT22;12936;52.006;4.350;2023-05-07T07:17:24;17.90;99.90
24860;DHT22;12936;52.006;4.350;2023-05-07T07:19:52;18.00;99.90
24860;DHT22;12936;52.006;4.350;2023-05-07T07:22:20;18.00;99.90
24860;DHT22;12936;52.006;4.350;2023-05-07T07:24:48;18.00;99.90
24860;DHT22;12936;52.006;4.350;2023-05-07T07:27:19;18.10;99.90
24860;DHT22;12936;52.006;4.350;2023-05-07T07:29:48;18.10;99.90
24860;DHT22;12936;52.006;4.350;2023-05-07T07:32:17;18.10;99.90
24860;DHT22;12936;52.006;4.350;2023-05-07T07:34:44;18.10;99.90
24860;DHT22;12936;52.006;4.350;2023-05-07T07:37:12;18.10;99.90
24860;DHT22;12936;52.006;4.350;2023-05-07T07:39:41;18.20;99.90
24860;DHT22;12936;52.006;4.350;2023-05-07T07:42:09;18.20;99.90
24860;DHT22;12936;52.006;4.350;2023-05-07T07:44:38;18.20;99.90
24860;DHT22;12936;52.006;4.350;2023-05-07T07:47:07;18.20;99.90
24860;DHT22;12936;52.006;4.350;2023-05-07T07:49:35;18.20;99.90
24860;DHT22;12936;52.006;4.350;2023-05-07T07:52:03;18.30;99.90
24860;DHT22;12936;52.006;4.350;2023-05-07T07:54:31;18.30;99.90
24860;DHT22;12936;52.006;4.350;2023-05-07T07:57:00;18.30;99.90
24860;DHT22;12936;52.006;4.350;2023-05-07T07:59:28;18.30;99.90
24860;DHT22;12936;52.006;4.350;2023-05-07T08:01:57;18.40;99.90
24860;DHT22;12936;52.006;4.350;2023-05-07T08:04:25;18.40;99.90
24860;DHT22;12936;52.006;4.350;2023-05-07T08:06:53;18.50;99.90
24860;DHT22;12936;52.006;4.350;2023-05-07T08:09:22;18.50;99.90
24860;DHT22;12936;52.006;4.350;2023-05-07T08:11:50;18.50;99.90
24860;DHT22;12936;52.006;4.350;2023-05-07T08:14:18;18.50;99.90
24860;DHT22;12936;52.006;4.350;2023-05-07T08:16:46;18.60;99.90
24860;DHT22;12936;52.006;4.350;2023-05-07T08:19:16;18.60;99.90
24860;DHT22;12936;52.006;4.350;2023-05-07T08:21:44;18.60;99.90
24860;DHT22;12936;52.006;4.350;2023-05-07T08:24:14;18.60;99.90
24860;DHT22;12936;52.006;4.350;2023-05-07T08:26:44;18.70;99.90
24860;DHT22;12936;52.006;4.350;2023-05-07T08:29:13;18.70;99.90
24860;DHT22;12936;52.006;4.350;2023-05-07T08:31:41;18.70;99.90
24860;DHT22;12936;52.006;4.350;2023-05-07T08:34:09;18.80;99.90
24860;DHT22;12936;52.006;4.350;2023-05-07T08:36:39;18.80;99.90
24860;DHT22;12936;52.006;4.350;2023-05-07T08:39:08;18.90;99.90
24860;DHT22;12936;52.006;4.350;2023-05-07T08:41:37;18.90;99.90
24860;DHT22;12936;52.006;4.350;2023-05-07T08:44:06;18.90;99.90
24860;DHT22;12936;52.006;4.350;2023-05-07T08:46:39;19.00;99.90
24860;DHT22;12936;52.006;4.350;2023-05-07T08:49:08;19.00;99.90
24860;DHT22;12936;52.006;4.350;2023-05-07T08:51:36;19.10;99.90
24860;DHT22;12936;52.006;4.350;2023-05-07T08:54:06;19.10;99.90
24860;DHT22;12936;52.006;4.350;2023-05-07T08:56:35;19.20;99.90
24860;DHT22;12936;52.006;4.350;2023-05-07T08:59:03;19.20;99.90
24860;DHT22;12936;52.006;4.350;2023-05-07T09:01:31;19.30;99.90
24860;DHT22;12936;52.006;4.350;2023-05-07T09:03:59;19.30;99.90
24860;DHT22;12936;52.006;4.350;2023-05-07T09:06:27;19.30;99.90
24860;DHT22;12936;52.006;4.350;2023-05-07T09:08:55;19.30;99.90
24860;DHT22;12936;52.006;4.350;2023-05-07T09:11:26;19.30;99.90
24860;DHT22;12936;52.006;4.350;2023-05-07T09:13:55;19.30;99.90
24860;DHT22;12936;52.006;4.350;2023-05-07T09:16:25;19.40;99.90
24860;DHT22;12936;52.006;4.350;2023-05-07T09:18:54;19.50;99.90
24860;DHT22;12936;52.006;4.350;2023-05-07T09:21:22;19.50;99.90
24860;DHT22;12936;52.006;4.350;2023-05-07T09:23:51;19.50;99.90
24860;DHT22;12936;52.006;4.350;2023-05-07T09:26:21;19.60;99.90
24860;DHT22;12936;52.006;4.350;2023-05-07T09:28:51;19.60;99.90
24860;DHT22;12936;52.006;4.350;2023-05-07T09:31:20;19.70;99.90
24860;DHT22;12936;52.006;4.350;2023-05-07T09:33:50;19.70;99.90
24860;DHT22;12936;52.006;4.350;2023-05-07T09:36:20;19.80;99.90
24860;DHT22;12936;52.006;4.350;2023-05-07T09:38:49;19.90;99.90
24860;DHT22;12936;52.006;4.350;2023-05-07T09:41:18;19.90;99.90
24860;DHT22;12936;52.006;4.350;2023-05-07T09:43:55;20.00;99.90
24860;DHT22;12936;52.006;4.350;2023-05-07T09:46:30;20.00;99.90
24860;DHT22;12936;52.006;4.350;2023-05-07T09:48:58;20.00;99.90
24860;DHT22;12936;52.006;4.350;2023-05-07T09:51:30;20.10;99.90
24860;DHT22;12936;52.006;4.350;2023-05-07T09:54:02;20.10;99.90
24860;DHT22;12936;52.006;4.350;2023-05-07T09:56:32;20.20;99.90
24860;DHT22;12936;52.006;4.350;2023-05-07T09:59:03;20.20;99.90
24860;DHT22;12936;52.006;4.350;2023-05-07T10:01:31;20.20;99.90
24860;DHT22;12936;52.006;4.350;2023-05-07T10:04:02;20.20;99.90
24860;DHT22;12936;52.006;4.350;2023-05-07T10:06:31;20.20;99.90
24860;DHT22;12936;52.006;4.350;2023-05-07T10:08:59;20.20;99.90
24860;DHT22;12936;52.006;4.350;2023-05-07T10:11:28;20.20;99.90
24860;DHT22;12936;52.006;4.350;2023-05-07T10:13:56;20.20;99.90
24860;DHT22;12936;52.006;4.350;2023-05-07T10:16:26;20.20;99.90
24860;DHT22;12936;52.006;4.350;2023-05-07T10:18:57;20.30;99.90
24860;DHT22;12936;52.006;4.350;2023-05-07T10:21:27;20.30;99.90
24860;DHT22;12936;52.006;4.350;2023-05-07T10:24:00;20.30;99.90
24860;DHT22;12936;52.006;4.350;2023-05-07T10:26:33;20.30;99.90
24860;DHT22;12936;52.006;4.350;2023-05-07T10:29:07;20.30;99.90
24860;DHT22;12936;52.006;4.350;2023-05-07T10:31:51;20.30;99.90
24860;DHT22;12936;52.006;4.350;2023-05-07T10:34:24;20.30;99.90
24860;DHT22;12936;52.006;4.350;2023-05-07T10:36:54;20.40;99.90
24860;DHT22;12936;52.006;4.350;2023-05-07T10:39:23;20.40;99.90
24860;DHT22;12936;52.006;4.350;2023-05-07T10:41:51;20.30;99.90
24860;DHT22;12936;52.006;4.350;2023-05-07T10:44:26;20.40;99.90
24860;DHT22;12936;52.006;4.350;2023-05-07T10:47:07;20.30;99.90
24860;DHT22;12936;52.006;4.350;2023-05-07T10:49:37;20.30;99.90
24860;DHT22;12936;52.006;4.350;2023-05-07T10:52:25;20.30;99.90
24860;DHT22;12936;52.006;4.350;2023-05-07T10:55:21;20.30;99.90
24860;DHT22;12936;52.006;4.350;2023-05-07T10:57:52;20.40;99.90
24860;DHT22;12936;52.006;4.350;2023-05-07T11:00:41;20.30;99.90
24860;DHT22;12936;52.006;4.350;2023-05-07T11:03:11;20.40;99.90
24860;DHT22;12936;52.006;4.350;2023-05-07T11:05:42;20.40;99.90
24860;DHT22;12936;52.006;4.350;2023-05-07T11:08:10;20.40;99.90
24860;DHT22;12936;52.006;4.350;2023-05-07T11:10:49;20.40;99.90
24860;DHT22;12936;52.006;4.350;2023-05-07T11:13:18;20.50;99.90
24860;DHT22;12936;52.006;4.350;2023-05-07T11:16:17;20.50;99.90
24860;DHT22;12936;52.006;4.350;2023-05-07T11:18:51;20.50;99.90
24860;DHT22;12936;52.006;4.350;2023-05-07T11:21:33;20.60;99.90
24860;DHT22;12936;52.006;4.350;2023-05-07T11:24:03;20.60;99.90
24860;DHT22;12936;52.006;4.350;2023-05-07T11:26:43;20.70;99.90
24860;DHT22;12936;52.006;4.350;2023-05-07T11:29:12;20.70;99.90
24860;DHT22;12936;52.006;4.350;2023-05-07T11:31:40;20.70;99.90
24860;DHT22;12936;52.006;4.350;2023-05-07T11:34:11;20.80;99.90
24860;DHT22;12936;52.006;4.350;2023-05-07T11:36:42;20.80;99.90
24860;DHT22;12936;52.006;4.350;2023-05-07T11:39:27;20.80;99.90
24860;DHT22;12936;52.006;4.350;2023-05-07T11:41:55;20.70;99.90
24860;DHT22;12936;52.006;4.350;2023-05-07T11:44:23;20.70;99.90
24860;DHT22;12936;52.006;4.350;2023-05-07T11:46:51;20.70;99.90
24860;DHT22;12936;52.006;4.350;2023-05-07T11:49:25;20.70;99.90
24860;DHT22;12936;52.006;4.350;2023-05-07T11:51:54;20.70;99.90
24860;DHT22;12936;52.006;4.350;2023-05-07T11:54:22;20.60;99.90
24860;DHT22;12936;52.006;4.350;2023-05-07T11:56:50;20.60;99.90
24860;DHT22;12936;52.006;4.350;2023-05-07T11:59:18;20.50;99.90
24860;DHT22;12936;52.006;4.350;2023-05-07T12:01:46;20.40;99.90
24860;DHT22;12936;52.006;4.350;2023-05-07T12:04:20;20.40;99.90
24860;DHT22;12936;52.006;4.350;2023-05-07T12:06:49;20.40;99.90
24860;DHT22;12936;52.006;4.350;2023-05-07T12:09:17;20.30;99.90
24860;DHT22;12936;52.006;4.350;2023-05-07T12:11:46;20.30;99.90
24860;DHT22;12936;52.006;4.350;2023-05-07T12:14:14;20.20;99.90
24860;DHT22;12936;52.006;4.350;2023-05-07T12:16:43;20.20;99.90
24860;DHT22;12936;52.006;4.350;2023-05-07T12:19:12;20.10;99.90
24860;DHT22;12936;52.006;4.350;2023-05-07T12:21:43;20.10;99.90
24860;DHT22;12936;52.006;4.350;2023-05-07T12:24:11;20.10;99.90
24860;DHT22;12936;52.006;4.350;2023-05-07T12:26:40;20.00;99.90
24860;DHT22;12936;52.006;4.350;2023-05-07T12:29:08;20.00;99.90
24860;DHT22;12936;52.006;4.350;2023-05-07T12:31:36;20.00;99.90
24860;DHT22;12936;52.006;4.350;2023-05-07T12:34:07;19.90;99.90
24860;DHT22;12936;52.006;4.350;2023-05-07T12:36:39;19.90;99.90
24860;DHT22;12936;52.006;4.350;2023-05-07T12:39:09;19.90;99.90
24860;DHT22;12936;52.006;4.350;2023-05-07T12:41:52;19.90;99.90
24860;DHT22;12936;52.006;4.350;2023-05-07T12:44:22;19.90;99.90
24860;DHT22;12936;52.006;4.350;2023-05-07T12:46:51;19.90;99.90
24860;DHT22;12936;52.006;4.350;2023-05-07T12:49:19;19.80;99.90
24860;DHT22;12936;52.006;4.350;2023-05-07T12:51:51;19.80;99.90
24860;DHT22;12936;52.006;4.350;2023-05-07T12:54:30;19.80;99.90
24860;DHT22;12936;52.006;4.350;2023-05-07T12:57:02;19.80;99.90
24860;DHT22;12936;52.006;4.350;2023-05-07T12:59:32;19.70;99.90
24860;DHT22;12936;52.006;4.350;2023-05-07T13:02:00;19.70;99.90
24860;DHT22;12936;52.006;4.350;2023-05-07T13:04:28;19.70;99.90
24860;DHT22;12936;52.006;4.350;2023-05-07T13:06:56;19.60;99.90
24860;DHT22;12936;52.006;4.350;2023-05-07T13:09:24;19.60;99.90
24860;DHT22;12936;52.006;4.350;2023-05-07T13:11:54;19.60;99.90
24860;DHT22;12936;52.006;4.350;2023-05-07T13:14:22;19.60;99.90
24860;DHT22;12936;52.006;4.350;2023-05-07T13:16:50;19.60;99.90
24860;DHT22;12936;52.006;4.350;2023-05-07T13:19:18;19.60;99.90
24860;DHT22;12936;52.006;4.350;2023-05-07T13:21:46;19.60;99.90
24860;DHT22;12936;52.006;4.350;2023-05-07T13:24:14;19.60;99.90
24860;DHT22;12936;52.006;4.350;2023-05-07T13:26:42;19.60;99.90
24860;DHT22;12936;52.006;4.350;2023-05-07T13:29:13;19.60;99.90
24860;DHT22;12936;52.006;4.350;2023-05-07T13:31:41;19.60;99.90
24860;DHT22;12936;52.006;4.350;2023-05-07T13:34:10;19.60;99.90
24860;DHT22;12936;52.006;4.350;2023-05-07T13:36:38;19.70;99.90
24860;DHT22;12936;52.006;4.350;2023-05-07T13:39:08;19.70;99.90
24860;DHT22;12936;52.006;4.350;2023-05-07T13:41:36;19.70;99.90
24860;DHT22;12936;52.006;4.350;2023-05-07T13:44:04;19.70;99.90
24860;DHT22;12936;52.006;4.350;2023-05-07T13:46:34;19.70;99.90
24860;DHT22;12936;52.006;4.350;2023-05-07T13:49:02;19.80;99.90
24860;DHT22;12936;52.006;4.350;2023-05-07T13:51:30;19.80;99.90
24860;DHT22;12936;52.006;4.350;2023-05-07T13:53:58;19.80;99.90
24860;DHT22;12936;52.006;4.350;2023-05-07T13:56:26;19.80;99.90
24860;DHT22;12936;52.006;4.350;2023-05-07T13:58:57;19.90;99.90
24860;DHT22;12936;52.006;4.350;2023-05-07T14:01:27;19.90;99.90
24860;DHT22;12936;52.006;4.350;2023-05-07T14:03:57;19.90;99.90
24860;DHT22;12936;52.006;4.350;2023-05-07T14:06:26;19.90;99.90
24860;DHT22;12936;52.006;4.350;2023-05-07T14:08:54;20.00;99.90
24860;DHT22;12936;52.006;4.350;2023-05-07T14:11:24;20.00;99.90
24860;DHT22;12936;52.006;4.350;2023-05-07T14:13:52;20.00;99.90
24860;DHT22;12936;52.006;4.350;2023-05-07T14:16:20;20.00;99.90
24860;DHT22;12936;52.006;4.350;2023-05-07T14:18:48;20.00;99.90
24860;DHT22;12936;52.006;4.350;2023-05-07T14:21:18;20.00;99.90
24860;DHT22;12936;52.006;4.350;2023-05-07T14:23:46;20.00;99.90
24860;DHT22;12936;52.006;4.350;2023-05-07T14:26:13;20.00;99.90
24860;DHT22;12936;52.006;4.350;2023-05-07T14:28:41;20.00;99.90
24860;DHT22;12936;52.006;4.350;2023-05-07T14:31:13;20.00;99.90
24860;DHT22;12936;52.006;4.350;2023-05-07T14:33:41;20.00;99.90
24860;DHT22;12936;52.006;4.350;2023-05-07T14:36:09;19.90;99.90
24860;DHT22;12936;52.006;4.350;2023-05-07T14:38:38;19.90;99.90
24860;DHT22;12936;52.006;4.350;2023-05-07T14:41:06;19.90;99.90
24860;DHT22;12936;52.006;4.350;2023-05-07T14:43:34;19.90;99.90
24860;DHT22;12936;52.006;4.350;2023-05-07T14:46:02;19.80;99.90
24860;DHT22;12936;52.006;4.350;2023-05-07T14:48:30;19.80;99.90
24860;DHT22;12936;52.006;4.350;2023-05-07T14:50:58;19.80;99.90
24860;DHT22;12936;52.006;4.350;2023-05-07T14:53:26;19.80;99.90
24860;DHT22;12936;52.006;4.350;2023-05-07T14:55:55;19.80;99.90
24860;DHT22;12936;52.006;4.350;2023-05-07T14:58:23;19.80;99.90
24860;DHT22;12936;52.006;4.350;2023-05-07T15:00:51;19.80;99.90
24860;DHT22;12936;52.006;4.350;2023-05-07T15:03:20;19.80;99.90
24860;DHT22;12936;52.006;4.350;2023-05-07T15:05:48;19.80;99.90
24860;DHT22;12936;52.006;4.350;2023-05-07T15:08:18;19.80;99.90
24860;DHT22;12936;52.006;4.350;2023-05-07T15:10:46;19.70;99.90
24860;DHT22;12936;52.006;4.350;2023-05-07T15:13:15;19.70;99.90
24860;DHT22;12936;52.006;4.350;2023-05-07T15:15:44;19.80;99.90
24860;DHT22;12936;52.006;4.350;2023-05-07T15:18:12;19.80;99.90
24860;DHT22;12936;52.006;4.350;2023-05-07T15:20:41;19.70;99.90
24860;DHT22;12936;52.006;4.350;2023-05-07T15:23:09;19.80;99.90
24860;DHT22;12936;52.006;4.350;2023-05-07T15:25:39;19.70;99.90
24860;DHT22;12936;52.006;4.350;2023-05-07T15:28:07;19.70;99.90
24860;DHT22;12936;52.006;4.350;2023-05-07T15:30:36;19.70;99.90
24860;DHT22;12936;52.006;4.350;2023-05-07T15:33:04;19.70;99.90
24860;DHT22;12936;52.006;4.350;2023-05-07T15:35:32;19.70;99.90
24860;DHT22;12936;52.006;4.350;2023-05-07T15:38:00;19.60;99.90
24860;DHT22;12936;52.006;4.350;2023-05-07T15:40:30;19.60;99.90
24860;DHT22;12936;52.006;4.350;2023-05-07T15:42:58;19.60;99.90
24860;DHT22;12936;52.006;4.350;2023-05-07T15:45:28;19.60;99.90